< < Back
Terminal Aerodrome Forecast


Current Version              Previous Versions:   1  2  3  4  5  6  7  8  9  

Terminal Aerodrome Forecast

267
FTUS42 KTAE 301200 RRA
TAFVLD
TAF
KVLD 301226Z 3012/3112 VRB04KT P6SM FEW060 SCT250=



Latest METAR

464
SAUS70 KWBC 310100 RRK
MTRVLD
METAR KVLD 310053Z 00000KT 10SM CLR 26/16 A2998 RMK AO2 SLP156
T02610161


USA.gov is the U.S. government's official web portal to all federal, state and local government web resources and services.